Time;durP1;ratioP1;P1;durP2;ratioP2;P2;SDS_P1;SDS_P2;PMS_P1;PMS_P2;Temp;Humidity;BMP_temperature;BMP_pressure;BME280_temperature;BME280_humidity;BME280_pressure;Samples;Min_cycle;Max_cycle;Signal;HPM_P1;HPM_P2
2022/11/21 00:02:02;;;;;;;11.68;8.18;;;5.10;99.90;;;;;;5028928;28;20056;-53
2022/11/21 00:05:06;;;;;;;15.05;9.10;;;5.10;99.90;;;;;;5032462;28;20053;-54
2022/11/21 00:08:13;;;;;;;11.85;7.90;;;5.00;99.90;;;;;;5033301;28;20057;-58
2022/11/21 00:11:17;;;;;;;12.85;8.07;;;5.00;99.90;;;;;;5032491;28;20060;-54
2022/11/21 00:14:21;;;;;;;14.38;8.20;;;4.90;99.90;;;;;;5032600;28;20131;-53
2022/11/21 00:17:25;;;;;;;10.60;6.40;;;4.90;99.90;;;;;;5033033;28;20053;-52
2022/11/21 00:20:30;;;;;;;8.68;4.35;;;4.90;99.90;;;;;;5032617;28;20503;-52
2022/11/21 00:23:34;;;;;;;8.25;4.38;;;4.90;99.90;;;;;;5032019;28;20034;-58
2022/11/21 00:26:40;;;;;;;9.50;3.97;;;4.90;99.90;;;;;;5032089;28;20049;-56
2022/11/21 00:29:44;;;;;;;8.70;4.80;;;4.90;99.90;;;;;;5032182;28;20393;-55
2022/11/21 00:32:48;;;;;;;8.60;4.82;;;4.80;99.90;;;;;;5020412;28;20389;-57
2022/11/21 00:35:53;;;;;;;7.22;4.78;;;4.90;99.90;;;;;;5032617;28;20053;-55
2022/11/21 00:38:57;;;;;;;8.82;4.85;;;4.90;99.90;;;;;;5032816;28;20381;-53
2022/11/21 00:42:01;;;;;;;9.00;5.57;;;4.90;99.90;;;;;;5032669;28;20033;-53
2022/11/21 00:45:05;;;;;;;9.48;5.28;;;4.90;99.90;;;;;;5032067;28;20045;-55
2022/11/21 00:48:11;;;;;;;9.90;6.18;;;4.90;99.90;;;;;;5032317;28;20049;-56
2022/11/21 00:51:14;;;;;;;11.15;6.60;;;4.80;99.90;;;;;;5032722;28;20042;-56
2022/11/21 00:54:18;;;;;;;10.48;6.57;;;4.90;99.90;;;;;;5031590;28;20056;-56
2022/11/21 00:57:23;;;;;;;11.35;5.63;;;4.90;99.90;;;;;;5032146;28;20048;-57
2022/11/21 01:00:28;;;;;;;13.57;6.60;;;4.80;99.90;;;;;;5032419;28;20045;-53
2022/11/21 01:03:34;;;;;;;10.98;7.05;;;4.70;99.90;;;;;;5031443;28;20507;-52
2022/11/21 01:06:38;;;;;;;11.13;7.18;;;4.70;99.90;;;;;;5031435;28;20056;-53
2022/11/21 01:09:42;;;;;;;12.32;7.03;;;4.70;99.90;;;;;;5032237;28;20053;-53
2022/11/21 01:12:47;;;;;;;11.75;7.00;;;4.70;99.90;;;;;;5031870;28;20069;-55
2022/11/21 01:15:52;;;;;;;14.65;9.18;;;4.70;99.90;;;;;;5031300;28;20052;-55
2022/11/21 01:18:56;;;;;;;16.60;9.50;;;4.70;99.90;;;;;;5032032;28;20052;-52
2022/11/21 01:22:00;;;;;;;17.13;10.25;;;4.70;99.90;;;;;;5031713;28;20049;-54
2022/11/21 01:25:05;;;;;;;17.23;9.75;;;4.70;99.90;;;;;;5030166;28;20511;-54
2022/11/21 01:28:08;;;;;;;14.23;9.85;;;4.70;99.90;;;;;;5031860;28;20052;-54
2022/11/21 01:31:15;;;;;;;15.68;9.63;;;4.80;99.90;;;;;;5031723;28;20052;-56
2022/11/21 01:34:19;;;;;;;17.60;10.07;;;4.80;99.90;;;;;;5030779;28;20447;-53
2022/11/21 01:37:24;;;;;;;16.70;10.15;;;4.80;99.90;;;;;;5031494;28;20049;-53
2022/11/21 01:40:28;;;;;;;16.13;9.57;;;4.80;99.90;;;;;;5031651;28;20416;-54
2022/11/21 01:43:32;;;;;;;19.83;11.30;;;4.80;99.90;;;;;;5030521;28;20041;-56
2022/11/21 01:46:38;;;;;;;17.08;13.10;;;4.80;99.90;;;;;;5031269;28;20052;-56
2022/11/21 01:49:44;;;;;;;23.17;12.13;;;4.90;99.90;;;;;;5031073;28;20526;-53
2022/11/21 01:52:48;;;;;;;22.60;12.90;;;4.80;99.90;;;;;;5031085;28;20420;-56
2022/11/21 01:55:52;;;;;;;19.33;11.90;;;4.80;99.90;;;;;;5031131;28;20044;-53
2022/11/21 01:59:00;;;;;;;19.45;11.77;;;4.70;99.90;;;;;;5031086;28;20040;-54
2022/11/21 02:02:07;;;;;;;16.90;11.52;;;4.70;99.90;;;;;;5031206;28;20040;-55
2022/11/21 02:05:16;;;;;;;16.77;12.43;;;4.70;99.90;;;;;;5029964;28;20048;-54
2022/11/21 02:08:22;;;;;;;20.50;13.80;;;4.70;99.90;;;;;;5030936;28;20387;-54
2022/11/21 02:11:50;;;;;;;17.80;12.68;;;4.80;99.90;;;;;;5030895;28;20423;-57
2022/11/21 02:14:55;;;;;;;24.08;13.70;;;4.80;99.90;;;;;;5030116;28;20048;-53
2022/11/21 02:17:59;;;;;;;23.83;13.88;;;4.90;99.90;;;;;;5030882;28;20052;-56
2022/11/21 02:21:29;;;;;;;20.77;14.13;;;4.90;99.90;;;;;;5031007;28;20408;-55
2022/11/21 02:24:40;;;;;;;21.58;14.40;;;4.90;99.90;;;;;;5030183;28;20432;-56
2022/11/21 02:27:45;;;;;;;24.20;14.35;;;4.90;99.90;;;;;;5031209;28;20517;-55
2022/11/21 02:30:50;;;;;;;18.95;13.43;;;4.90;99.90;;;;;;5031149;28;20048;-53
2022/11/21 02:33:54;;;;;;;19.77;13.80;;;4.90;99.90;;;;;;5030253;28;20400;-53
2022/11/21 02:36:59;;;;;;;20.33;12.73;;;4.80;99.90;;;;;;5031062;28;20523;-53
2022/11/21 02:40:10;;;;;;;20.25;13.55;;;4.80;99.90;;;;;;5030921;28;20283;-53
2022/11/21 02:43:18;;;;;;;;;;;4.70;99.90;;;;;;5030772;28;20045;-55
2022/11/21 02:46:23;;;;;;;20.10;13.80;;;4.70;99.90;;;;;;5030826;28;20559;-51
2022/11/21 02:49:39;;;;;;;23.55;15.55;;;4.70;99.90;;;;;;5030177;28;20052;-54
2022/11/21 02:52:44;;;;;;;23.38;15.25;;;4.70;99.90;;;;;;5030172;28;20040;-53
2022/11/21 02:55:48;;;;;;;22.50;15.02;;;4.60;99.90;;;;;;5029950;28;20412;-55
2022/11/21 02:58:53;;;;;;;27.40;14.35;;;4.50;99.90;;;;;;5030049;28;20048;-53
2022/11/21 03:01:58;;;;;;;20.63;14.38;;;4.40;99.90;;;;;;5030101;28;20044;-54
2022/11/21 03:05:04;;;;;;;23.40;16.35;;;4.30;99.90;;;;;;5029199;28;20538;-56
2022/11/21 03:08:09;;;;;;;24.38;16.02;;;4.20;99.90;;;;;;5029983;28;20164;-53
2022/11/21 03:11:13;;;;;;;21.42;15.00;;;4.20;99.90;;;;;;5029945;28;20044;-56
2022/11/21 03:14:17;;;;;;;27.30;16.10;;;4.10;99.90;;;;;;5029147;28;20068;-57
2022/11/21 03:17:21;;;;;;;26.30;15.48;;;4.00;99.90;;;;;;5029783;28;20052;-56
2022/11/21 03:20:25;;;;;;;26.27;16.45;;;4.00;99.90;;;;;;5029806;28;20219;-55
2022/11/21 03:23:28;;;;;;;24.17;15.50;;;4.00;99.90;;;;;;5028867;28;20064;-53
2022/11/21 03:26:33;;;;;;;23.08;15.98;;;4.00;99.90;;;;;;5029621;28;20044;-55
2022/11/21 03:29:37;;;;;;;21.77;14.93;;;4.20;99.90;;;;;;5029699;28;20044;-53
2022/11/21 03:32:41;;;;;;;24.30;15.45;;;4.30;99.90;;;;;;5029456;28;20040;-55
2022/11/21 03:35:46;;;;;;;25.20;15.95;;;4.40;99.90;;;;;;5029356;28;20048;-52
2022/11/21 03:38:50;;;;;;;23.38;15.52;;;4.40;99.90;;;;;;5029334;28;20048;-56
2022/11/21 03:41:55;;;;;;;19.48;14.52;;;4.40;99.90;;;;;;5029287;28;20531;-54
2022/11/21 03:45:00;;;;;;;21.38;14.48;;;4.20;99.90;;;;;;5028014;28;20631;-56
2022/11/21 03:48:06;;;;;;;19.15;13.30;;;4.30;99.90;;;;;;5028963;28;20052;-52
2022/11/21 03:51:09;;;;;;;16.13;10.88;;;4.50;99.90;;;;;;5029748;28;20436;-55
2022/11/21 03:54:13;;;;;;;14.45;9.27;;;4.60;99.90;;;;;;5028529;28;20060;-57
2022/11/21 03:57:17;;;;;;;19.08;12.88;;;4.80;99.90;;;;;;5029304;28;20607;-53
2022/11/21 04:00:21;;;;;;;183.10;22.48;;;4.60;99.90;;;;;;5029475;28;20044;-54
2022/11/21 04:03:25;;;;;;;72.90;18.80;;;4.00;99.90;;;;;;5028785;28;20117;-54
2022/11/21 04:06:30;;;;;;;28.20;16.70;;;3.80;99.90;;;;;;5029332;28;20515;-56
2022/11/21 04:09:34;;;;;;;69.82;18.73;;;3.70;99.90;;;;;;5029374;28;20113;-52
2022/11/21 04:12:39;;;;;;;101.32;19.38;;;3.70;99.90;;;;;;5029419;28;20044;-53
2022/11/21 04:15:44;;;;;;;58.25;17.67;;;3.80;99.90;;;;;;5028653;28;20036;-54
2022/11/21 04:18:48;;;;;;;25.73;15.40;;;3.80;99.90;;;;;;5028914;28;20049;-57
2022/11/21 04:21:52;;;;;;;21.10;15.38;;;3.80;99.90;;;;;;5029093;28;20506;-53
2022/11/21 04:24:56;;;;;;;116.68;18.13;;;3.90;99.90;;;;;;5028612;28;20048;-54
2022/11/21 04:28:03;;;;;;;223.52;23.17;;;3.80;99.90;;;;;;5029250;28;20515;-52
2022/11/21 04:31:08;;;;;;;160.43;19.38;;;3.60;99.90;;;;;;5029009;28;20048;-55
2022/11/21 04:34:12;;;;;;;83.32;17.33;;;3.40;99.90;;;;;;5028304;28;20514;-53
2022/11/21 04:37:18;;;;;;;35.63;14.43;;;3.40;99.90;;;;;;5028656;28;20054;-54
2022/11/21 04:40:23;;;;;;;271.27;24.23;;;3.40;99.90;;;;;;5028844;28;20056;-55
2022/11/21 04:43:30;;;;;;;69.05;16.58;;;3.40;99.90;;;;;;5028216;28;20399;-53
2022/11/21 04:46:34;;;;;;;40.25;18.23;;;3.50;99.90;;;;;;5028487;28;20044;-52
2022/11/21 04:49:39;;;;;;;29.73;15.95;;;3.60;99.90;;;;;;5028849;28;20515;-57
2022/11/21 04:52:50;;;;;;;24.50;15.43;;;3.70;99.90;;;;;;5031958;28;20044;-52
2022/11/21 04:55:55;;;;;;;23.73;14.50;;;3.90;99.90;;;;;;5031868;28;20048;-55
2022/11/21 04:58:58;;;;;;;25.17;15.00;;;3.90;99.90;;;;;;5032358;28;20056;-58
2022/11/21 05:02:02;;;;;;;22.45;14.25;;;3.90;99.90;;;;;;5031832;28;20044;-56
2022/11/21 05:05:07;;;;;;;25.30;13.63;;;4.00;99.90;;;;;;5031497;28;20053;-55
2022/11/21 05:08:11;;;;;;;22.40;13.45;;;4.00;99.90;;;;;;5032384;28;20052;-52
2022/11/21 05:14:38;;;;;;;;;;;4.10;99.90;;;;;;5031809;28;20112;-56
2022/11/21 05:17:41;;;;;;;18.15;12.27;;;4.20;99.90;;;;;;5031503;28;19920;-53
2022/11/21 05:20:46;;;;;;;26.85;13.25;;;4.30;99.90;;;;;;5032043;28;20041;-54
2022/11/21 05:23:50;;;;;;;17.30;12.07;;;4.30;99.90;;;;;;5031296;28;20503;-57
2022/11/21 05:26:54;;;;;;;18.48;12.43;;;4.30;99.90;;;;;;5031877;28;20052;-52
2022/11/21 05:29:59;;;;;;;15.32;11.15;;;4.40;99.90;;;;;;5032029;28;20040;-55
2022/11/21 05:33:04;;;;;;;18.63;11.65;;;4.50;99.90;;;;;;5031812;28;20048;-54
2022/11/21 05:36:08;;;;;;;16.05;11.45;;;4.40;99.90;;;;;;5031222;28;20040;-56
2022/11/21 05:39:12;;;;;;;15.43;11.07;;;4.30;99.90;;;;;;5031714;28;20048;-53
2022/11/21 05:43:44;;;;;;;17.63;13.15;;;4.20;99.90;;;;;;5031244;28;20424;-53
2022/11/21 05:45:40;;;;;;;16.67;11.75;;;4.10;99.90;;;;;;5031174;28;20040;-55
2022/11/21 05:48:46;;;;;;;18.10;12.00;;;4.10;99.90;;;;;;5031179;28;20044;-53
2022/11/21 05:51:50;;;;;;;19.20;12.35;;;4.00;99.90;;;;;;5031537;28;20048;-52
2022/11/21 05:54:55;;;;;;;28.35;12.00;;;3.90;99.90;;;;;;5030719;28;20060;-57
2022/11/21 05:57:59;;;;;;;16.52;11.65;;;4.00;99.90;;;;;;5030711;28;20408;-53
2022/11/21 06:01:04;;;;;;;15.55;11.02;;;4.00;99.90;;;;;;5030895;28;20044;-53
2022/11/21 06:04:09;;;;;;;15.98;10.43;;;4.10;99.90;;;;;;5030540;28;20048;-53
2022/11/21 06:07:13;;;;;;;17.25;10.65;;;4.20;99.90;;;;;;5030822;28;20404;-51
2022/11/21 06:10:17;;;;;;;14.32;9.27;;;4.20;99.90;;;;;;5031010;28;20044;-54
2022/11/21 06:13:21;;;;;;;13.30;9.18;;;4.30;99.90;;;;;;5030321;28;20052;-57
2022/11/21 06:16:25;;;;;;;11.32;7.47;;;4.40;99.90;;;;;;5030991;28;20049;-56
2022/11/21 06:19:29;;;;;;;11.15;7.55;;;4.40;99.90;;;;;;5031147;28;20060;-53
2022/11/21 06:22:33;;;;;;;12.48;7.32;;;4.30;99.90;;;;;;5031038;28;20052;-53
2022/11/21 06:25:37;;;;;;;12.45;7.18;;;4.20;99.90;;;;;;5030917;28;20044;-57
2022/11/21 06:28:42;;;;;;;15.27;7.78;;;4.20;99.90;;;;;;5030536;28;20056;-54
2022/11/21 06:31:46;;;;;;;205.50;33.42;;;4.20;99.90;;;;;;5030873;28;20065;-56
2022/11/21 06:34:50;;;;;;;11.57;8.23;;;4.20;99.90;;;;;;5030127;28;20069;-55
2022/11/21 06:37:57;;;;;;;18.52;10.35;;;4.30;99.90;;;;;;5030195;28;20519;-57
2022/11/21 06:41:13;;;;;;;10.98;7.75;;;4.30;99.90;;;;;;5030806;28;20044;-55
2022/11/21 06:44:19;;;;;;;12.00;7.40;;;4.30;99.90;;;;;;5030330;28;20053;-53
2022/11/21 06:47:23;;;;;;;10.40;7.28;;;4.30;99.90;;;;;;5030092;28;20056;-55
2022/11/21 06:50:29;;;;;;;11.23;7.13;;;4.30;99.90;;;;;;5030639;28;20052;-55
2022/11/21 06:53:34;;;;;;;17.58;7.57;;;4.30;99.90;;;;;;5029796;28;20060;-52
2022/11/21 06:56:38;;;;;;;8.38;6.35;;;4.40;99.90;;;;;;5030673;28;20412;-53
2022/11/21 06:59:42;;;;;;;11.73;7.18;;;4.40;99.90;;;;;;5030528;28;20549;-54
2022/11/21 07:02:46;;;;;;;11.18;7.10;;;4.40;99.90;;;;;;5030620;28;20080;-54
2022/11/21 07:05:51;;;;;;;15.15;7.03;;;4.40;99.90;;;;;;5030482;28;20057;-53
2022/11/21 07:08:55;;;;;;;9.82;7.10;;;4.50;99.90;;;;;;5021847;28;20052;-57
2022/11/21 07:13:20;;;;;;;12.50;7.05;;;4.60;99.90;;;;;;5019921;28;20045;-56
2022/11/21 07:15:23;;;;;;;10.98;6.63;;;4.80;99.90;;;;;;5009832;28;20515;-53
2022/11/21 07:18:26;;;;;;;12.68;7.53;;;5.00;99.90;;;;;;5022096;28;20052;-52
2022/11/21 07:21:30;;;;;;;12.40;7.95;;;5.10;99.90;;;;;;5025024;28;20069;-53
2022/11/21 07:24:35;;;;;;;10.60;6.78;;;5.20;99.90;;;;;;5025716;28;20037;-53
2022/11/21 07:27:39;;;;;;;14.23;8.38;;;5.40;99.90;;;;;;5027150;28;20048;-54
2022/11/21 07:30:43;;;;;;;11.65;7.68;;;5.50;99.90;;;;;;5024752;28;20065;-53
2022/11/21 07:33:51;;;;;;;10.20;6.85;;;5.70;99.90;;;;;;5020971;28;20064;-53
2022/11/21 07:36:55;;;;;;;7.70;5.80;;;5.80;99.90;;;;;;5019460;28;20041;-55
2022/11/21 07:40:02;;;;;;;10.38;6.57;;;5.80;99.90;;;;;;5019325;28;20037;-55
2022/11/21 07:43:06;;;;;;;12.35;6.55;;;5.90;99.90;;;;;;5017572;28;20425;-56
2022/11/21 07:46:10;;;;;;;11.13;6.78;;;5.90;99.90;;;;;;5015746;28;20052;-55
2022/11/21 07:49:14;;;;;;;12.65;7.53;;;5.90;99.90;;;;;;5025173;28;20044;-57
2022/11/21 07:52:18;;;;;;;15.77;7.82;;;6.00;99.90;;;;;;5017097;28;20056;-54
2022/11/21 07:55:22;;;;;;;12.85;6.70;;;6.10;99.90;;;;;;5025430;28;20040;-54
2022/11/21 07:58:26;;;;;;;11.85;7.45;;;6.30;99.90;;;;;;5026721;28;20404;-57
2022/11/21 08:01:30;;;;;;;15.18;5.88;;;6.40;99.90;;;;;;5022033;28;20053;-56
2022/11/21 08:04:35;;;;;;;8.18;6.13;;;6.80;99.90;;;;;;5011645;28;20411;-53
2022/11/21 08:07:39;;;;;;;14.63;7.13;;;6.90;99.90;;;;;;5026869;28;20041;-55
2022/11/21 08:10:44;;;;;;;10.75;6.45;;;8.30;99.90;;;;;;5015708;28;20048;-54
2022/11/21 08:13:48;;;;;;;13.65;6.78;;;8.50;99.90;;;;;;5015185;28;20420;-55
2022/11/21 08:16:52;;;;;;;13.05;7.00;;;8.50;99.90;;;;;;5011487;28;20044;-56
2022/11/21 08:19:59;;;;;;;16.95;7.75;;;8.30;99.90;;;;;;5009053;28;20045;-54
2022/11/21 08:23:03;;;;;;;15.73;7.38;;;8.20;99.90;;;;;;5011150;28;20433;-55
2022/11/21 08:26:09;;;;;;;14.02;6.90;;;8.30;99.90;;;;;;5027026;28;20242;-56
2022/11/21 08:29:16;;;;;;;13.52;6.45;;;8.90;99.90;;;;;;5014911;28;20048;-55
2022/11/21 08:32:21;;;;;;;12.95;5.95;;;9.20;99.90;;;;;;5023639;28;20363;-57
2022/11/21 08:35:25;;;;;;;11.20;6.40;;;9.40;99.90;;;;;;5017345;28;20048;-52
2022/11/21 08:38:30;;;;;;;11.25;6.82;;;10.70;99.90;;;;;;5012775;28;20045;-56
2022/11/21 08:44:58;;;;;;;8.98;6.05;;;9.90;99.90;;;;;;5013392;28;20517;-58
2022/11/21 08:48:03;;;;;;;8.07;6.18;;;9.70;99.90;;;;;;5016789;28;21474;-54
2022/11/21 08:51:06;;;;;;;8.07;5.60;;;9.90;99.90;;;;;;5022321;28;20037;-52
2022/11/21 08:54:11;;;;;;;9.35;4.75;;;10.40;99.90;;;;;;5031826;28;20496;-51
2022/11/21 08:57:15;;;;;;;10.13;5.90;;;11.80;99.90;;;;;;5013041;28;20053;-57
2022/11/21 09:00:19;;;;;;;8.05;5.40;;;12.20;99.90;;;;;;5022100;28;20060;-57
2022/11/21 09:03:23;;;;;;;9.75;5.72;;;13.00;99.90;;;;;;5014014;28;20049;-52
2022/11/21 09:06:28;;;;;;;9.18;6.05;;;12.40;99.90;;;;;;5020811;28;20401;-54
2022/11/21 09:09:35;;;;;;;10.32;6.15;;;11.40;99.90;;;;;;5031734;28;20044;-53
2022/11/21 09:12:40;;;;;;;8.73;6.30;;;10.90;99.90;;;;;;5014194;28;20112;-53
2022/11/21 09:19:07;;;;;;;13.30;6.70;;;10.80;99.90;;;;;;5028055;28;20032;-56
2022/11/21 09:22:11;;;;;;;7.00;5.85;;;11.80;99.90;;;;;;5028482;28;20072;-54
2022/11/21 09:25:15;;;;;;;8.30;5.72;;;15.30;99.90;;;;;;5025714;28;20040;-56
2022/11/21 09:28:19;;;;;;;8.02;6.07;;;19.90;99.90;;;;;;5028603;28;20444;-55
2022/11/21 09:31:23;;;;;;;6.85;5.25;;;19.90;98.80;;;;;;5018759;28;20037;-57
2022/11/21 09:34:27;;;;;;;6.20;4.60;;;20.10;97.70;;;;;;5020347;28;20405;-58
2022/11/21 09:37:36;;;;;;;6.70;4.90;;;21.70;96.80;;;;;;5012238;28;20057;-57
2022/11/21 09:40:44;;;;;;;7.50;4.95;;;22.10;94.50;;;;;;5014009;28;20057;-55
2022/11/21 09:44:07;;;;;;;7.97;4.72;;;20.90;95.70;;;;;;5014435;28;20065;-55
2022/11/21 09:47:25;;;;;;;6.03;4.93;;;23.60;93.60;;;;;;5029209;28;20547;-55
2022/11/21 09:50:41;;;;;;;7.00;5.00;;;20.60;95.00;;;;;;5013504;28;20535;-52
2022/11/21 09:54:06;;;;;;;6.18;4.50;;;23.90;92.90;;;;;;5030401;28;20044;-55
2022/11/21 09:57:13;;;;;;;6.75;4.32;;;25.60;90.90;;;;;;5020507;28;20044;-57
2022/11/21 10:00:23;;;;;;;5.97;4.03;;;25.90;88.30;;;;;;5029219;28;20040;-57
2022/11/21 10:03:43;;;;;;;6.15;4.75;;;25.70;87.80;;;;;;5013813;28;20041;-52
2022/11/21 10:06:54;;;;;;;6.90;4.63;;;20.80;93.20;;;;;;5018361;28;20040;-53
2022/11/21 10:10:43;;;;;;;7.20;5.05;;;19.80;93.80;;;;;;5017546;28;20044;-57
2022/11/21 10:14:28;;;;;;;10.88;5.25;;;19.20;95.10;;;;;;5012704;28;20041;-53
2022/11/21 10:17:47;;;;;;;6.40;4.97;;;20.00;94.50;;;;;;5025733;28;20044;-57
2022/11/21 10:21:04;;;;;;;9.05;5.82;;;17.90;97.20;;;;;;5011525;28;20048;-57
2022/11/21 10:24:27;;;;;;;10.88;6.03;;;14.90;99.90;;;;;;5029270;28;20061;-56
2022/11/21 10:27:45;;;;;;;13.48;7.45;;;15.20;99.90;;;;;;5025387;28;20491;-54
2022/11/21 10:30:51;;;;;;;8.07;5.97;;;14.60;99.90;;;;;;5015096;28;20400;-56
2022/11/21 10:33:57;;;;;;;7.85;6.07;;;15.30;99.90;;;;;;5028144;28;20037;-55
2022/11/21 10:37:25;;;;;;;9.02;6.30;;;15.20;99.90;;;;;;5024276;28;20044;-55
2022/11/21 10:40:43;;;;;;;9.45;6.25;;;13.30;99.90;;;;;;5027933;28;20066;-56
2022/11/21 10:47:49;;;;;;;10.95;6.97;;;14.10;99.90;;;;;;5015084;28;20057;-54
2022/11/21 10:50:52;;;;;;;9.25;5.65;;;14.70;99.90;;;;;;5028719;28;20401;-54
2022/11/21 10:57:51;;;;;;;7.63;5.13;;;16.40;99.90;;;;;;5020993;28;20053;-54
2022/11/21 11:00:57;;;;;;;8.87;5.10;;;18.30;99.90;;;;;;5015426;28;20041;-56
2022/11/21 11:04:10;;;;;;;8.68;5.88;;;17.90;99.90;;;;;;5034856;28;20036;-53
2022/11/21 11:07:25;;;;;;;10.18;5.28;;;17.50;99.90;;;;;;5042141;28;20416;-55
2022/11/21 11:10:31;;;;;;;13.68;5.90;;;17.00;99.90;;;;;;5024337;28;20048;-57
2022/11/21 11:14:00;;;;;;;8.35;5.63;;;16.30;99.90;;;;;;5024100;28;20059;-57
2022/11/21 11:17:04;;;;;;;8.82;4.93;;;15.50;99.90;;;;;;5024136;28;20408;-54
2022/11/21 11:20:30;;;;;;;8.00;4.78;;;16.70;99.90;;;;;;5038205;28;20052;-55
2022/11/21 11:23:33;;;;;;;5.38;4.05;;;16.90;99.90;;;;;;5027327;28;20050;-57
2022/11/21 11:26:46;;;;;;;7.45;4.10;;;15.30;99.90;;;;;;5029707;28;20052;-56
2022/11/21 11:29:51;;;;;;;6.10;4.13;;;15.80;99.90;;;;;;5035539;28;20048;-51
2022/11/21 11:32:55;;;;;;;9.18;3.83;;;15.20;99.90;;;;;;5030303;28;20048;-58
2022/11/21 11:36:35;;;;;;;7.18;4.55;;;14.30;99.90;;;;;;5033399;28;20042;-53
2022/11/21 11:39:57;;;;;;;6.68;3.40;;;14.90;99.90;;;;;;5036261;28;20047;-58
2022/11/21 11:50:36;;;;;;;6.15;3.80;;;16.60;99.90;;;;;;5038009;28;20040;-54
2022/11/21 11:53:46;;;;;;;8.43;3.42;;;16.50;99.90;;;;;;5030753;28;20048;-56
2022/11/21 11:56:50;;;;;;;4.18;2.72;;;17.50;99.90;;;;;;5014607;28;20049;-55
2022/11/21 12:00:21;;;;;;;13.48;2.58;;;17.90;99.90;;;;;;5020406;28;20551;-57
2022/11/21 12:03:48;;;;;;;7.05;3.08;;;19.10;99.90;;;;;;5026568;28;20044;-54
2022/11/21 12:07:06;;;;;;;3.70;2.58;;;20.20;99.90;;;;;;5037368;28;20048;-56
2022/11/21 12:12:05;;;;;;;6.45;2.75;;;20.00;99.90;;;;;;5038603;28;20052;-55
2022/11/21 12:18:17;;;;;;;3.78;2.65;;;16.20;99.90;;;;;;5029073;28;20408;-54
2022/11/21 12:21:22;;;;;;;4.28;2.72;;;16.50;99.90;;;;;;5027980;28;20037;-53
2022/11/21 12:24:26;;;;;;;4.22;2.45;;;17.60;99.90;;;;;;5034987;28;20048;-56
2022/11/21 12:27:31;;;;;;;5.85;2.45;;;17.00;99.90;;;;;;5018976;28;20048;-56
2022/11/21 12:30:38;;;;;;;4.80;2.63;;;16.60;99.90;;;;;;5026689;28;20040;-57
2022/11/21 12:34:02;;;;;;;5.35;2.55;;;16.40;99.90;;;;;;5027781;28;20033;-57
2022/11/21 12:37:35;;;;;;;3.60;2.15;;;16.20;99.90;;;;;;5043780;28;20065;-55
2022/11/21 12:44:57;;;;;;;8.27;3.15;;;15.40;99.90;;;;;;5027489;28;20044;-55
2022/11/21 12:55:46;;;;;;;4.72;2.90;;;14.50;99.90;;;;;;5025536;28;20041;-55
2022/11/21 12:58:52;;;;;;;6.90;3.58;;;14.60;99.90;;;;;;5026884;28;20048;-57
2022/11/21 13:02:11;;;;;;;7.10;3.72;;;14.10;99.90;;;;;;5022889;28;20070;-57
2022/11/21 13:05:26;;;;;;;6.57;3.03;;;13.70;99.90;;;;;;5025616;28;20032;-51
2022/11/21 13:08:35;;;;;;;8.73;3.35;;;13.60;99.90;;;;;;5038969;28;20040;-51
2022/11/21 13:12:01;;;;;;;7.35;3.60;;;13.60;99.90;;;;;;5022828;28;20052;-54
2022/11/21 13:15:25;;;;;;;10.48;5.00;;;13.50;99.90;;;;;;5025043;28;20048;-56
2022/11/21 13:18:35;;;;;;;7.97;3.45;;;13.90;99.90;;;;;;5023707;28;20048;-56
2022/11/21 13:21:47;;;;;;;6.57;4.20;;;13.90;99.90;;;;;;5032250;28;20511;-56
2022/11/21 13:24:53;;;;;;;12.02;4.15;;;13.20;99.90;;;;;;5020749;28;20045;-56
2022/11/21 13:28:13;;;;;;;7.47;3.55;;;13.20;99.90;;;;;;5026154;28;20040;-55
2022/11/21 13:31:27;;;;;;;6.38;3.38;;;13.50;99.90;;;;;;5025980;28;20040;-57
2022/11/21 13:34:35;;;;;;;6.72;3.35;;;13.60;99.90;;;;;;5026225;28;20036;-57
2022/11/21 13:37:48;;;;;;;7.07;4.05;;;13.80;99.90;;;;;;5015385;28;20041;-53
2022/11/21 13:44:33;;;;;;;5.72;3.30;;;13.70;99.90;;;;;;5016875;28;20040;-53
2022/11/21 13:47:57;;;;;;;8.38;3.38;;;13.60;99.90;;;;;;5025799;28;20041;-58
2022/11/21 13:51:45;;;;;;;7.43;3.60;;;13.60;99.90;;;;;;5035836;28;20044;-56
2022/11/21 13:55:17;;;;;;;7.50;4.18;;;13.30;99.90;;;;;;5035427;28;20499;-55
2022/11/21 13:58:27;;;;;;;;;;;12.80;99.90;;;;;;5025491;28;20523;-56
2022/11/21 14:01:39;;;;;;;8.65;4.47;;;12.50;99.90;;;;;;5021457;28;19952;-53
2022/11/21 14:05:11;;;;;;;10.30;4.63;;;12.30;99.90;;;;;;5029210;28;20032;-55
2022/11/21 14:08:20;;;;;;;;;;;12.10;99.90;;;;;;5040137;28;20091;-57
2022/11/21 14:11:40;;;;;;;8.63;5.82;;;11.80;99.90;;;;;;5018199;28;19932;-53
2022/11/21 14:29:18;;;;;;;24.75;12.38;;;10.80;99.90;;;;;;5034629;28;20044;-52
2022/11/21 14:32:27;;;;;;;13.75;7.15;;;10.70;99.90;;;;;;5027166;28;20056;-55
2022/11/21 14:35:33;;;;;;;15.27;9.02;;;10.70;99.90;;;;;;5033372;28;20055;-54
2022/11/21 14:38:43;;;;;;;13.02;7.70;;;10.80;99.90;;;;;;5029875;28;20056;-53
2022/11/21 14:41:51;;;;;;;12.85;7.75;;;10.80;99.90;;;;;;5036092;28;20048;-56
2022/11/21 14:45:18;;;;;;;10.82;7.85;;;10.90;99.90;;;;;;5032390;28;20040;-53
2022/11/21 14:48:27;;;;;;;13.52;8.15;;;11.00;99.90;;;;;;5032974;28;20040;-54
2022/11/21 14:51:31;;;;;;;14.07;7.75;;;11.10;99.90;;;;;;5028383;28;20503;-56
2022/11/21 14:54:48;;;;;;;12.35;8.07;;;11.00;99.90;;;;;;5032234;28;20048;-52
2022/11/21 14:57:53;;;;;;;12.88;8.57;;;11.00;99.90;;;;;;5022243;28;20500;-53
2022/11/21 15:01:05;;;;;;;16.73;7.38;;;11.00;99.90;;;;;;5028627;28;20040;-54
2022/11/21 15:04:14;;;;;;;11.63;8.07;;;11.10;99.90;;;;;;5026802;28;20062;-53
2022/11/21 15:07:24;;;;;;;16.38;10.15;;;11.00;99.90;;;;;;5034556;28;20052;-51
2022/11/21 15:10:34;;;;;;;14.75;9.65;;;11.00;99.90;;;;;;5035033;28;20211;-54
2022/11/21 15:13:40;;;;;;;13.68;8.63;;;11.00;99.90;;;;;;5028631;28;20043;-55
2022/11/21 15:16:48;;;;;;;13.68;8.45;;;11.00;99.90;;;;;;5019155;28;20040;-56
2022/11/21 15:20:22;;;;;;;15.35;9.07;;;11.00;99.90;;;;;;5026840;28;20049;-54
2022/11/21 15:23:37;;;;;;;10.73;7.10;;;11.00;99.90;;;;;;5034861;28;20040;-55
2022/11/21 15:26:41;;;;;;;8.27;4.70;;;11.00;99.90;;;;;;5012329;28;20380;-53
2022/11/21 15:29:45;;;;;;;15.45;5.43;;;11.00;99.90;;;;;;5017511;28;20060;-53
2022/11/21 15:33:16;;;;;;;7.65;3.28;;;11.10;99.90;;;;;;5033940;28;20048;-52
2022/11/21 15:36:20;;;;;;;5.15;3.17;;;11.20;99.90;;;;;;5009863;28;20041;-52
2022/11/21 15:39:24;;;;;;;5.53;3.20;;;11.20;99.90;;;;;;5024030;28;20048;-52
2022/11/21 15:42:32;;;;;;;5.93;3.42;;;11.20;99.90;;;;;;5027642;28;20415;-52
2022/11/21 15:45:38;;;;;;;6.95;3.42;;;11.20;99.90;;;;;;5032650;28;20036;-53
2022/11/21 15:48:55;;;;;;;10.43;3.88;;;11.20;99.90;;;;;;5027327;28;20468;-53
2022/11/21 15:52:01;;;;;;;6.40;3.38;;;11.20;99.90;;;;;;5023892;28;20086;-52
2022/11/21 15:55:12;;;;;;;4.18;2.50;;;11.20;99.90;;;;;;5031091;28;20048;-52
2022/11/21 15:58:17;;;;;;;5.43;3.20;;;11.30;99.90;;;;;;5030255;28;20048;-53
2022/11/21 16:01:23;;;;;;;5.22;2.78;;;11.30;99.90;;;;;;5026100;28;20044;-55
2022/11/21 16:04:27;;;;;;;6.03;3.30;;;11.30;99.90;;;;;;5032336;28;20039;-53
2022/11/21 16:07:31;;;;;;;8.05;3.35;;;11.40;99.90;;;;;;5023746;28;20036;-55
2022/11/21 16:10:35;;;;;;;10.80;4.93;;;11.30;99.90;;;;;;5033963;28;20036;-55
2022/11/21 16:13:40;;;;;;;14.05;7.80;;;11.20;99.90;;;;;;5029165;28;20404;-53
2022/11/21 16:16:45;;;;;;;15.63;9.45;;;11.00;99.90;;;;;;5029626;28;20044;-56
2022/11/21 16:19:49;;;;;;;14.35;9.63;;;10.80;99.90;;;;;;5032061;28;20053;-53
2022/11/21 16:22:54;;;;;;;17.20;10.52;;;10.70;99.90;;;;;;5032680;28;20045;-55
2022/11/21 16:25:58;;;;;;;14.73;10.93;;;10.50;99.90;;;;;;5030540;28;20063;-53
2022/11/21 16:29:04;;;;;;;14.40;8.82;;;10.50;99.90;;;;;;5035270;28;20103;-52
2022/11/21 16:32:08;;;;;;;12.00;6.28;;;10.60;99.90;;;;;;5031823;28;20044;-53
2022/11/21 16:35:12;;;;;;;6.75;3.55;;;10.70;99.90;;;;;;5029830;28;20053;-53
2022/11/21 16:38:16;;;;;;;11.15;5.75;;;10.90;99.90;;;;;;5040198;28;20518;-53
2022/11/21 16:41:22;;;;;;;6.75;4.00;;;11.00;99.90;;;;;;5039575;28;20049;-56
2022/11/21 16:44:29;;;;;;;5.80;3.25;;;11.00;99.90;;;;;;5036515;28;20044;-55
2022/11/21 16:47:36;;;;;;;4.57;2.28;;;11.00;99.90;;;;;;5034175;28;20036;-52
2022/11/21 16:50:40;;;;;;;7.20;2.85;;;11.20;99.90;;;;;;5030925;28;20048;-52
2022/11/21 16:53:48;;;;;;;4.68;2.60;;;11.40;99.90;;;;;;5028466;28;20064;-54
2022/11/21 16:56:53;;;;;;;10.63;7.30;;;11.40;99.90;;;;;;5039122;28;20051;-53
2022/11/21 16:59:57;;;;;;;14.73;7.50;;;11.00;99.90;;;;;;5042779;28;20044;-53
2022/11/21 17:03:01;;;;;;;14.25;7.97;;;10.70;99.90;;;;;;5029722;28;20436;-52
2022/11/21 17:06:05;;;;;;;17.00;10.10;;;10.40;99.90;;;;;;5040265;28;20043;-52
2022/11/21 17:09:08;;;;;;;51.28;32.42;;;10.20;99.90;;;;;;5039231;28;20519;-52
2022/11/21 17:12:13;;;;;;;18.63;12.13;;;10.30;99.90;;;;;;5031560;28;20060;-54
2022/11/21 17:15:18;;;;;;;43.50;22.42;;;10.10;99.90;;;;;;5033423;28;20273;-54